Terminal Aerodrome Forecast
Issued by NWS Cleveland, OH

Home | Current Version | Previous Version | Graphics & Text | Print | Product List | Glossary On
Versions: 1 2 3 4 5 6 7 8 9 10 11 12 13 14 15 16 17 18 19 20 21 22 23 24 25
000
FTUS41 KCLE 232300
TAFTOL
TAF
KTOL 232324Z 2400/2424 07010KT P6SM -SN OVC025
      TEMPO 2400/2402 4SM -SN OVC012
     FM240200 05007KT P6SM SCT025 OVC040
      TEMPO 2402/2406 6SM -SN BR OVC025
     FM240800 05004KT P6SM SCT040 BKN100
     FM241200 05006KT P6SM SCT100 BKN250
     FM241600 07007KT P6SM SKC=

USA.gov is the U.S. government's official web portal to all federal, state and local government web resources and services.